Time;durP1;ratioP1;P1;durP2;ratioP2;P2;SDS_P1;SDS_P2;PMS_P1;PMS_P2;Temp;Humidity;BMP_temperature;BMP_pressure;BME280_temperature;BME280_humidity;BME280_pressure;Samples;Min_cycle;Max_cycle;Signal;HPM_P1;HPM_P2
2023/08/19 00:01:33;;;;;;;24.52;20.35;;;21.00;99.90;;;;;;4998521;28;20034;-80
2023/08/19 00:04:00;;;;;;;22.80;20.15;;;21.00;99.90;;;;;;4996515;28;20390;-80
2023/08/19 00:06:36;;;;;;;24.15;21.25;;;21.00;99.90;;;;;;4997323;28;20046;-79
2023/08/19 00:09:04;;;;;;;25.88;21.42;;;20.90;99.90;;;;;;4984025;28;20037;-80
2023/08/19 00:11:40;;;;;;;28.05;20.70;;;21.00;99.90;;;;;;4984820;28;20046;-79
2023/08/19 00:14:07;;;;;;;28.98;21.42;;;20.90;99.90;;;;;;4974860;28;20050;-79
2023/08/19 00:16:33;;;;;;;24.08;20.85;;;21.00;99.90;;;;;;4983383;28;20037;-79
2023/08/19 00:18:59;;;;;;;25.77;21.55;;;20.90;99.90;;;;;;4999423;28;20065;-80
2023/08/19 00:21:26;;;;;;;24.15;21.60;;;20.90;99.90;;;;;;5023517;22;20165;-78
2023/08/19 00:24:08;;;;;;;26.48;21.58;;;21.00;99.90;;;;;;4960587;28;20042;-78
2023/08/19 00:27:01;;;;;;;25.13;21.52;;;20.90;99.90;;;;;;4996549;28;20118;-78
2023/08/19 00:29:30;;;;;;;25.48;20.65;;;20.90;99.90;;;;;;4990333;28;20041;-78
2023/08/19 00:35:28;;;;;;;24.50;20.80;;;20.90;99.90;;;;;;4990840;28;20081;-78
2023/08/19 00:38:11;;;;;;;27.38;21.90;;;20.90;99.90;;;;;;4937354;28;20038;-79
2023/08/19 00:40:47;;;;;;;24.23;21.60;;;20.90;99.90;;;;;;4976350;28;20049;-79
2023/08/19 00:44:40;;;;;;;30.17;22.00;;;20.80;99.90;;;;;;4987598;28;20033;-78
2023/08/19 00:47:39;;;;;;;25.95;21.05;;;20.90;99.90;;;;;;4960597;28;20100;-78
2023/08/19 00:50:40;;;;;;;27.58;21.10;;;20.90;99.90;;;;;;4902890;29;20048;-79
2023/08/19 00:53:17;;;;;;;25.17;21.75;;;20.80;99.90;;;;;;4896406;29;20055;-78
2023/08/19 00:55:50;;;;;;;25.52;22.17;;;20.80;99.90;;;;;;4934318;28;20452;-78
2023/08/19 00:58:19;;;;;;;24.60;21.05;;;20.80;99.90;;;;;;4955362;28;20038;-78
2023/08/19 01:01:09;;;;;;;23.42;20.60;;;20.80;99.90;;;;;;4955278;28;20053;-78
2023/08/19 01:04:45;;;;;;;28.77;21.45;;;20.80;99.90;;;;;;4953781;28;20046;-79
2023/08/19 01:08:41;;;;;;;25.70;22.73;;;20.80;99.90;;;;;;4941491;29;20046;-78
2023/08/19 01:12:40;;;;;;;23.92;21.38;;;20.80;99.90;;;;;;4914185;29;20599;-80
2023/08/19 01:16:27;;;;;;;28.42;21.73;;;20.80;99.90;;;;;;4888599;29;21197;-79
2023/08/19 01:23:55;;;;;;;25.20;21.65;;;20.70;99.90;;;;;;4876018;29;20068;-79
2023/08/19 01:31:14;;;;;;;25.92;22.40;;;20.70;99.90;;;;;;4794115;29;20087;-79
2023/08/19 01:38:48;;;;;;;28.83;23.58;;;20.70;99.90;;;;;;4793480;29;20045;-79
2023/08/19 01:42:31;;;;;;;26.77;23.10;;;20.60;99.90;;;;;;4757640;30;20117;-79
2023/08/19 01:45:44;;;;;;;26.27;23.30;;;20.60;99.90;;;;;;4778480;29;20480;-79
2023/08/19 01:48:43;;;;;;;28.27;22.67;;;20.60;99.90;;;;;;4752748;30;20047;-79
2023/08/19 01:51:42;;;;;;;28.70;23.88;;;20.60;99.90;;;;;;4750454;30;20059;-79
2023/08/19 02:18:11;;;;;;;30.27;23.10;;;20.60;99.90;;;;;;4744752;30;20048;-79
2023/08/19 02:22:10;;;;;;;30.88;22.67;;;20.50;99.90;;;;;;4788002;29;20046;-79
2023/08/19 02:25:53;;;;;;;27.58;23.60;;;20.50;99.90;;;;;;4763817;30;20048;-79
2023/08/19 02:30:55;;;;;;;29.38;23.85;;;20.50;99.90;;;;;;4717398;30;20169;-79
2023/08/19 02:37:53;;;;;;;28.95;24.02;;;20.50;99.90;;;;;;4752118;30;20078;-79
2023/08/19 02:41:03;;;;;;;31.90;23.63;;;20.50;99.90;;;;;;4755628;30;20059;-80
2023/08/19 02:45:09;;;;;;;28.73;24.75;;;20.50;99.90;;;;;;4769209;30;20409;-80
2023/08/19 02:48:58;;;;;;;29.67;23.95;;;20.40;99.90;;;;;;4697674;30;20038;-80
2023/08/19 02:52:14;;;;;;;28.10;24.38;;;20.40;99.90;;;;;;4686013;30;20048;-80
2023/08/19 02:55:57;;;;;;;29.98;24.48;;;20.40;99.90;;;;;;4703718;30;20055;-79
2023/08/19 02:58:57;;;;;;;29.27;25.17;;;20.40;99.90;;;;;;4848935;29;20121;-79
2023/08/19 03:02:18;;;;;;;30.77;24.23;;;20.40;99.90;;;;;;4876855;29;20050;-80
2023/08/19 03:04:53;;;;;;;29.17;23.17;;;20.40;99.90;;;;;;4892680;29;20049;-79
2023/08/19 03:07:53;;;;;;;27.98;24.20;;;20.40;99.90;;;;;;4881086;29;20052;-80
2023/08/19 03:11:35;;;;;;;30.13;24.70;;;20.40;99.90;;;;;;4871811;29;20124;-79
2023/08/19 03:14:49;;;;;;;29.48;23.60;;;20.40;99.90;;;;;;4891290;29;20108;-79
2023/08/19 03:17:58;;;;;;;29.17;24.40;;;20.60;99.90;;;;;;4889503;29;20056;-79
2023/08/19 03:21:41;;;;;;;28.58;23.15;;;20.40;99.90;;;;;;4944073;29;20090;-79
2023/08/19 03:24:47;;;;;;;26.88;23.20;;;20.40;99.90;;;;;;4946575;28;20104;-78
2023/08/19 03:27:16;;;;;;;27.23;22.88;;;20.40;99.90;;;;;;4969626;28;20030;-78
2023/08/19 03:30:00;;;;;;;27.98;22.42;;;20.40;99.90;;;;;;4993337;28;20038;-79
2023/08/19 03:33:14;;;;;;;32.50;23.60;;;20.40;99.90;;;;;;4945733;28;20042;-78
2023/08/19 03:35:46;;;;;;;28.48;22.95;;;20.30;99.90;;;;;;4969609;28;20113;-79
2023/08/19 03:42:17;;;;;;;27.83;22.35;;;20.40;99.90;;;;;;4975475;28;20037;-79
2023/08/19 03:45:17;;;;;;;29.05;23.25;;;20.40;99.90;;;;;;4958721;28;20128;-79
2023/08/19 03:48:12;;;;;;;29.65;23.27;;;20.40;99.90;;;;;;4980827;28;20042;-79
2023/08/19 03:51:03;;;;;;;27.13;22.40;;;20.40;99.90;;;;;;4950475;28;20402;-78
2023/08/19 03:54:22;;;;;;;28.67;22.65;;;20.40;99.90;;;;;;4995449;28;20161;-78
2023/08/19 03:57:14;;;;;;;26.80;22.25;;;20.30;99.90;;;;;;4976856;28;20053;-78
2023/08/19 03:59:56;;;;;;;28.33;21.42;;;20.30;99.90;;;;;;4950686;28;20050;-78
2023/08/19 04:02:49;;;;;;;26.92;21.67;;;20.30;99.90;;;;;;4960359;28;20050;-78
2023/08/19 04:05:56;;;;;;;28.83;20.73;;;20.30;99.90;;;;;;4978645;28;20042;-79
2023/08/19 04:09:01;;;;;;;26.77;21.67;;;20.40;99.90;;;;;;4979247;28;20050;-78
2023/08/19 04:12:23;;;;;;;25.08;21.60;;;20.30;99.90;;;;;;4972379;28;20097;-79
2023/08/19 04:15:17;;;;;;;27.38;21.80;;;20.30;99.90;;;;;;4934926;28;20057;-79
2023/08/19 04:18:11;;;;;;;25.98;20.90;;;20.40;99.90;;;;;;4973139;28;20038;-79
2023/08/19 04:21:34;;;;;;;28.15;21.52;;;20.30;99.90;;;;;;4983123;28;20046;-79
2023/08/19 04:25:05;;;;;;;25.35;20.77;;;20.40;99.90;;;;;;4967394;28;20419;-79
2023/08/19 04:32:18;;;;;;;26.92;21.52;;;20.30;99.90;;;;;;4942324;29;20062;-78
2023/08/19 04:34:44;;;;;;;26.23;20.27;;;20.30;99.90;;;;;;4931807;29;20115;-79
2023/08/19 04:38:24;;;;;;;27.52;20.13;;;20.40;99.90;;;;;;4927843;29;20424;-79
2023/08/19 04:45:42;;;;;;;26.25;19.15;;;20.40;99.90;;;;;;4928150;29;20367;-79
2023/08/19 04:48:59;;;;;;;24.35;19.30;;;20.40;99.90;;;;;;4991337;28;20486;-79
2023/08/19 04:52:33;;;;;;;23.92;18.45;;;20.50;99.90;;;;;;4933730;28;20070;-79
2023/08/19 04:55:29;;;;;;;25.13;19.08;;;20.50;99.90;;;;;;4859451;29;20057;-79
2023/08/19 04:58:29;;;;;;;21.73;18.33;;;20.50;99.90;;;;;;4919194;29;20103;-79
2023/08/19 05:01:04;;;;;;;24.02;18.77;;;20.50;99.90;;;;;;4930324;29;20127;-79
2023/08/19 05:04:08;;;;;;;23.42;19.10;;;20.50;99.90;;;;;;4916361;29;20123;-79
2023/08/19 05:06:50;;;;;;;23.15;20.13;;;20.60;99.90;;;;;;4920570;29;20047;-79
2023/08/19 05:09:17;;;;;;;22.55;19.25;;;20.60;99.90;;;;;;4922826;28;20042;-79
2023/08/19 05:12:36;;;;;;;26.27;18.83;;;20.60;99.90;;;;;;4969046;28;20118;-79
2023/08/19 05:15:31;;;;;;;21.98;18.08;;;20.60;99.90;;;;;;4985949;28;20046;-78
2023/08/19 05:18:37;;;;;;;22.05;18.38;;;20.60;99.90;;;;;;4981507;28;20042;-79
2023/08/19 05:21:55;;;;;;;22.98;17.05;;;20.60;99.90;;;;;;4985953;28;20066;-79
2023/08/19 05:24:38;;;;;;;22.67;18.38;;;20.70;99.90;;;;;;4960613;28;20142;-78
2023/08/19 05:27:49;;;;;;;22.88;17.52;;;20.70;99.90;;;;;;4969383;28;20081;-79
2023/08/19 05:30:47;;;;;;;19.67;17.27;;;20.70;99.90;;;;;;4990639;28;20041;-78
2023/08/19 05:33:22;;;;;;;23.08;17.23;;;20.70;99.90;;;;;;4952082;28;20050;-79
2023/08/19 05:35:48;;;;;;;22.65;17.70;;;20.70;99.90;;;;;;4955409;28;20070;-79
2023/08/19 05:38:23;;;;;;;20.30;17.50;;;20.70;99.90;;;;;;4955798;28;20035;-79
2023/08/19 05:40:51;;;;;;;19.73;17.15;;;20.70;99.90;;;;;;4948981;28;20043;-79
2023/08/19 05:43:48;;;;;;;21.35;16.65;;;20.70;99.90;;;;;;4935805;28;20034;-79
2023/08/19 05:50:13;;;;;;;20.73;15.98;;;20.80;99.90;;;;;;4996964;28;20045;-79
2023/08/19 05:52:40;;;;;;;19.63;16.77;;;20.80;99.90;;;;;;4969261;28;20121;-78
2023/08/19 05:55:16;;;;;;;22.15;17.33;;;20.80;99.90;;;;;;4957203;28;20387;-78
2023/08/19 05:57:46;;;;;;;21.95;16.00;;;20.90;99.90;;;;;;4971811;28;20074;-79
2023/08/19 06:00:14;;;;;;;17.73;15.73;;;20.90;99.90;;;;;;4966756;28;20045;-79
2023/08/19 06:03:04;;;;;;;21.15;16.48;;;20.90;99.90;;;;;;4971985;28;20046;-79
2023/08/19 06:05:31;;;;;;;19.25;15.55;;;20.90;99.90;;;;;;4970556;28;20093;-80
2023/08/19 06:08:14;;;;;;;20.98;16.17;;;20.90;99.90;;;;;;4959008;28;20042;-78
2023/08/19 06:11:28;;;;;;;20.13;16.27;;;21.00;99.90;;;;;;4943234;28;20469;-79
2023/08/19 06:17:21;;;;;;;19.77;14.80;;;21.10;99.90;;;;;;4908212;29;20051;-79
2023/08/19 06:20:00;;;;;;;21.23;15.00;;;21.00;99.90;;;;;;4903172;29;20043;-79
2023/08/19 06:22:26;;;;;;;22.15;15.60;;;21.00;99.90;;;;;;4964092;23;20080;-79
2023/08/19 06:24:52;;;;;;;20.33;15.57;;;21.10;99.90;;;;;;5008661;28;20079;-78
2023/08/19 06:27:17;;;;;;;19.40;15.82;;;21.00;99.90;;;;;;5015587;28;20037;-78
2023/08/19 06:29:43;;;;;;;19.58;15.25;;;21.10;99.90;;;;;;5018956;28;20053;-78
2023/08/19 06:32:09;;;;;;;19.75;14.60;;;21.00;99.90;;;;;;5007622;28;20045;-78
2023/08/19 06:34:35;;;;;;;19.35;15.55;;;21.00;99.90;;;;;;5013231;28;20045;-78
2023/08/19 06:37:03;;;;;;;18.15;14.55;;;21.10;99.90;;;;;;5031059;28;20029;-79
2023/08/19 06:39:32;;;;;;;16.38;13.75;;;21.10;99.90;;;;;;5025235;28;20135;-78
2023/08/19 06:42:02;;;;;;;18.75;14.23;;;21.20;99.90;;;;;;5020664;28;20044;-79
2023/08/19 06:44:30;;;;;;;18.23;13.77;;;21.20;99.90;;;;;;5014583;28;20044;-78
2023/08/19 06:46:56;;;;;;;17.38;13.48;;;21.20;99.90;;;;;;5016350;28;20068;-78
2023/08/19 06:49:23;;;;;;;15.23;13.38;;;21.20;99.90;;;;;;5021477;28;20497;-78
2023/08/19 06:51:49;;;;;;;15.23;12.70;;;21.20;99.90;;;;;;5016159;28;20041;-78
2023/08/19 06:54:15;;;;;;;17.38;13.57;;;21.30;99.90;;;;;;5013942;28;20034;-78
2023/08/19 06:56:57;;;;;;;15.18;13.40;;;21.30;99.90;;;;;;5030647;28;20132;-78
2023/08/19 06:59:45;;;;;;;17.15;13.35;;;21.30;99.90;;;;;;5013704;28;20046;-79
2023/08/19 07:02:14;;;;;;;18.02;13.32;;;21.40;99.90;;;;;;5017947;28;20042;-81
2023/08/19 07:04:44;;;;;;;15.20;12.75;;;21.40;99.90;;;;;;5014597;28;20092;-79
2023/08/19 07:07:11;;;;;;;15.82;13.18;;;21.40;99.90;;;;;;5014666;28;20038;-79
2023/08/19 07:09:37;;;;;;;16.17;13.48;;;21.50;99.90;;;;;;5019978;28;20106;-78
2023/08/19 07:12:03;;;;;;;15.73;12.57;;;21.50;99.90;;;;;;5012722;28;20049;-78
2023/08/19 07:14:29;;;;;;;20.98;13.80;;;21.60;99.90;;;;;;5018121;28;20083;-78
2023/08/19 07:17:00;;;;;;;16.23;12.68;;;21.60;99.90;;;;;;5017051;28;20065;-78
2023/08/19 07:19:37;;;;;;;16.60;12.80;;;21.70;99.90;;;;;;5022189;28;20040;-78
2023/08/19 07:22:04;;;;;;;17.27;12.32;;;21.80;99.90;;;;;;5019530;28;20041;-78
2023/08/19 07:24:31;;;;;;;17.52;12.45;;;21.80;99.90;;;;;;5015529;28;20432;-79
2023/08/19 07:27:02;;;;;;;12.88;11.48;;;21.90;99.90;;;;;;5027025;28;20049;-78
2023/08/19 07:29:28;;;;;;;17.53;12.00;;;21.90;99.90;;;;;;5007066;28;20481;-78
2023/08/19 07:31:53;;;;;;;12.88;10.88;;;22.00;99.90;;;;;;5020932;28;20291;-78
2023/08/19 07:34:19;;;;;;;14.85;11.32;;;22.00;99.90;;;;;;5003378;28;20525;-78
2023/08/19 07:36:45;;;;;;;15.77;10.95;;;22.10;99.90;;;;;;5020196;28;20049;-77
2023/08/19 07:39:11;;;;;;;14.15;10.85;;;22.10;99.90;;;;;;5020045;28;20025;-79
2023/08/19 07:41:37;;;;;;;14.32;11.30;;;22.20;99.90;;;;;;5031426;28;20511;-79
2023/08/19 07:44:03;;;;;;;14.60;11.27;;;22.20;99.90;;;;;;5028607;28;20180;-78
2023/08/19 07:46:29;;;;;;;13.40;10.88;;;22.20;99.90;;;;;;5019125;28;20048;-78
2023/08/19 07:48:55;;;;;;;13.77;10.00;;;22.30;99.90;;;;;;5035514;28;20041;-81
2023/08/19 07:51:22;;;;;;;13.63;10.30;;;22.40;99.90;;;;;;5020004;28;20052;-79
2023/08/19 07:53:47;;;;;;;13.95;10.05;;;22.50;99.90;;;;;;5018859;28;20087;-82
2023/08/19 07:56:13;;;;;;;14.27;9.90;;;22.50;99.90;;;;;;5016571;28;20037;-80
2023/08/19 07:58:39;;;;;;;10.73;9.63;;;22.60;99.90;;;;;;5016302;28;20038;-82
2023/08/19 08:01:05;;;;;;;13.43;10.60;;;22.70;99.90;;;;;;5016126;28;20033;-81
2023/08/19 08:03:32;;;;;;;14.73;10.40;;;22.80;99.90;;;;;;5016365;28;20056;-80
2023/08/19 08:05:58;;;;;;;13.25;9.48;;;22.90;99.90;;;;;;5013304;28;20096;-80
2023/08/19 08:08:24;;;;;;;14.25;10.48;;;23.00;99.90;;;;;;5017111;28;20451;-79
2023/08/19 08:10:53;;;;;;;12.75;9.38;;;23.10;99.90;;;;;;5009427;28;20064;-80
2023/08/19 08:13:18;;;;;;;13.18;9.25;;;23.10;99.90;;;;;;5017502;28;20446;-79
2023/08/19 08:15:44;;;;;;;13.55;9.18;;;23.20;99.90;;;;;;5035373;28;20125;-78
2023/08/19 08:18:09;;;;;;;14.52;9.30;;;23.30;99.90;;;;;;5038078;28;20038;-79
2023/08/19 08:20:37;;;;;;;12.07;9.57;;;23.30;99.90;;;;;;5020350;28;20055;-79
2023/08/19 08:23:03;;;;;;;12.63;8.05;;;23.40;99.90;;;;;;5029405;28;20274;-79
2023/08/19 08:25:29;;;;;;;13.00;8.80;;;23.40;99.90;;;;;;5036513;28;20094;-80
2023/08/19 08:27:55;;;;;;;14.23;9.25;;;23.50;99.90;;;;;;5026591;28;20443;-78
2023/08/19 08:30:21;;;;;;;14.00;8.77;;;23.60;99.90;;;;;;5019719;28;20045;-79
2023/08/19 08:32:47;;;;;;;10.57;8.55;;;23.70;99.90;;;;;;5019763;28;20068;-79
2023/08/19 08:35:12;;;;;;;13.02;8.43;;;23.80;99.90;;;;;;5018218;28;20052;-80
2023/08/19 08:37:38;;;;;;;16.40;9.50;;;23.80;99.90;;;;;;5019445;28;20025;-80
2023/08/19 08:40:04;;;;;;;15.38;8.73;;;23.90;99.90;;;;;;5019956;28;20097;-79
2023/08/19 08:42:31;;;;;;;12.93;8.52;;;23.90;99.90;;;;;;5027274;28;20033;-79
2023/08/19 08:44:58;;;;;;;11.15;7.80;;;23.90;99.90;;;;;;5020145;28;20046;-80
2023/08/19 08:47:26;;;;;;;10.18;7.65;;;24.00;99.90;;;;;;5017699;28;20489;-79
2023/08/19 08:49:53;;;;;;;11.93;6.88;;;24.10;99.90;;;;;;5025511;28;20052;-80
2023/08/19 08:52:20;;;;;;;10.20;7.88;;;24.20;99.90;;;;;;5005718;28;20237;-79
2023/08/19 08:54:51;;;;;;;11.82;7.38;;;24.30;99.90;;;;;;5019895;28;20046;-80
2023/08/19 08:57:16;;;;;;;10.90;7.23;;;24.50;99.90;;;;;;5028263;28;20040;-80
2023/08/19 08:59:43;;;;;;;12.55;7.43;;;24.50;99.90;;;;;;5036027;28;20045;-80
2023/08/19 09:02:11;;;;;;;13.65;7.60;;;24.60;99.90;;;;;;5020860;28;20045;-80
2023/08/19 09:04:42;;;;;;;11.38;6.45;;;24.60;99.90;;;;;;5033448;28;20404;-80
2023/08/19 09:07:19;;;;;;;11.05;7.30;;;24.70;99.90;;;;;;5014322;28;20076;-79
2023/08/19 09:09:46;;;;;;;12.20;7.90;;;24.80;99.90;;;;;;5021203;28;20040;-80
2023/08/19 09:12:12;;;;;;;11.48;7.28;;;24.80;99.90;;;;;;5016199;28;20065;-79
2023/08/19 09:14:43;;;;;;;15.07;7.30;;;24.90;99.90;;;;;;5006513;28;20033;-80
2023/08/19 09:17:12;;;;;;;11.00;7.55;;;25.00;99.90;;;;;;5013362;28;20041;-83
2023/08/19 09:19:39;;;;;;;12.90;7.05;;;25.00;99.90;;;;;;5039082;28;20034;-80
2023/08/19 09:22:16;;;;;;;17.02;8.00;;;25.10;99.90;;;;;;5038370;28;20044;-79
2023/08/19 09:24:42;;;;;;;11.52;7.75;;;25.10;99.90;;;;;;4997392;28;20037;-79
2023/08/19 09:27:08;;;;;;;11.40;8.23;;;25.10;99.90;;;;;;5018716;28;20045;-80
2023/08/19 09:29:34;;;;;;;10.73;7.55;;;25.10;99.90;;;;;;5016298;28;20568;-79
2023/08/19 09:32:00;;;;;;;14.75;8.30;;;25.20;99.90;;;;;;5019666;28;20034;-80
2023/08/19 09:34:26;;;;;;;11.63;8.25;;;25.30;99.90;;;;;;5003448;28;20479;-80
2023/08/19 09:36:56;;;;;;;10.20;7.80;;;25.40;99.90;;;;;;5046737;28;20040;-80
2023/08/19 09:39:25;;;;;;;11.77;8.18;;;25.40;99.90;;;;;;5041495;28;20037;-79
2023/08/19 09:41:56;;;;;;;17.95;8.18;;;25.40;99.90;;;;;;5020146;28;20061;-79
2023/08/19 09:44:22;;;;;;;11.57;8.27;;;25.50;99.90;;;;;;5018788;28;20049;-79
2023/08/19 09:46:48;;;;;;;13.25;7.72;;;25.50;99.90;;;;;;5000459;28;20037;-79
2023/08/19 09:49:21;;;;;;;12.85;7.05;;;25.40;99.90;;;;;;5022994;28;20045;-79
2023/08/19 09:51:57;;;;;;;12.65;7.03;;;25.40;99.90;;;;;;5024516;28;20037;-80
2023/08/19 09:54:24;;;;;;;12.43;7.45;;;25.40;99.90;;;;;;5030110;28;20045;-79
2023/08/19 09:56:55;;;;;;;9.00;6.93;;;25.40;99.90;;;;;;5018615;28;20044;-79
2023/08/19 09:59:24;;;;;;;12.13;7.50;;;25.40;99.90;;;;;;5019310;28;20116;-79
2023/08/19 10:01:51;;;;;;;16.13;8.30;;;25.40;99.90;;;;;;5015261;28;20287;-79
2023/08/19 10:04:18;;;;;;;11.07;8.43;;;25.40;99.90;;;;;;5019801;28;20045;-79
2023/08/19 10:06:50;;;;;;;11.27;8.43;;;25.30;99.90;;;;;;5025765;28;20404;-79
2023/08/19 10:09:20;;;;;;;14.98;8.15;;;25.30;99.90;;;;;;5022058;28;20076;-79
2023/08/19 10:11:50;;;;;;;12.63;9.02;;;25.20;99.90;;;;;;5037638;28;20068;-79
2023/08/19 10:14:18;;;;;;;12.80;8.77;;;25.10;99.90;;;;;;5036239;28;20034;-79
2023/08/19 10:16:46;;;;;;;11.43;8.90;;;25.00;99.90;;;;;;5024571;28;20052;-79
2023/08/19 10:19:17;;;;;;;16.75;9.07;;;25.00;99.90;;;;;;5026805;28;20033;-79
2023/08/19 10:21:45;;;;;;;13.30;9.55;;;24.90;99.90;;;;;;5030987;28;20045;-79
2023/08/19 10:24:11;;;;;;;11.70;9.10;;;24.80;99.90;;;;;;5022153;28;20072;-80
2023/08/19 10:26:37;;;;;;;13.02;10.00;;;24.80;99.90;;;;;;5036339;28;20551;-79
2023/08/19 10:29:05;;;;;;;13.18;9.88;;;24.80;99.90;;;;;;5017175;28;20045;-79
2023/08/19 10:31:32;;;;;;;13.18;9.40;;;24.80;99.90;;;;;;5020359;28;20057;-79
2023/08/19 10:33:58;;;;;;;12.45;9.85;;;24.80;99.90;;;;;;5024721;28;20094;-79
2023/08/19 10:36:30;;;;;;;13.13;9.70;;;24.80;99.90;;;;;;5020724;28;20041;-79
2023/08/19 10:38:57;;;;;;;12.90;10.10;;;24.80;99.90;;;;;;5019078;28;20038;-79
2023/08/19 10:41:30;;;;;;;14.20;10.25;;;24.90;99.90;;;;;;5020154;28;20049;-79
2023/08/19 10:44:04;;;;;;;12.20;10.10;;;24.90;99.90;;;;;;5025019;28;20440;-79
2023/08/19 10:46:33;;;;;;;17.98;10.43;;;24.90;99.90;;;;;;5018043;28;20052;-79
2023/08/19 10:48:59;;;;;;;14.63;10.45;;;24.90;99.90;;;;;;5014004;28;20045;-79
2023/08/19 10:51:46;;;;;;;13.73;10.55;;;25.00;99.90;;;;;;5009534;28;20049;-79
2023/08/19 10:54:11;;;;;;;13.82;11.18;;;25.10;99.90;;;;;;5025478;28;20036;-80
2023/08/19 10:56:44;;;;;;;18.25;11.20;;;25.20;99.90;;;;;;5014661;28;20041;-80
2023/08/19 10:59:10;;;;;;;12.02;10.73;;;25.50;99.90;;;;;;5031590;28;20045;-80
2023/08/19 11:01:35;;;;;;;15.00;10.68;;;25.70;99.90;;;;;;5016698;28;20044;-81
2023/08/19 11:04:01;;;;;;;16.27;10.90;;;25.90;99.90;;;;;;5013532;28;20041;-78
2023/08/19 11:06:30;;;;;;;14.73;11.02;;;25.90;99.90;;;;;;5039242;28;20037;-79
2023/08/19 11:08:59;;;;;;;17.20;11.48;;;25.90;99.90;;;;;;5019910;28;20033;-79
2023/08/19 11:11:25;;;;;;;15.55;11.63;;;26.00;99.90;;;;;;5018568;28;20045;-79
2023/08/19 11:13:52;;;;;;;20.88;12.70;;;25.90;99.90;;;;;;5019959;28;20041;-78
2023/08/19 11:16:18;;;;;;;15.68;10.90;;;25.90;99.90;;;;;;5020502;28;20034;-79
2023/08/19 11:18:44;;;;;;;16.30;11.65;;;25.90;99.90;;;;;;5026696;28;20110;-79
2023/08/19 11:21:09;;;;;;;17.15;11.05;;;25.80;99.90;;;;;;5019057;28;20037;-79
2023/08/19 11:23:35;;;;;;;14.27;11.50;;;25.80;99.90;;;;;;5031684;28;20052;-79
2023/08/19 11:26:01;;;;;;;19.38;11.98;;;25.90;99.90;;;;;;5026488;28;20065;-79
2023/08/19 11:28:27;;;;;;;15.32;13.10;;;25.90;99.90;;;;;;5023807;28;20040;-81
2023/08/19 11:30:54;;;;;;;15.93;12.95;;;26.10;99.90;;;;;;5037620;28;20072;-79
2023/08/19 11:33:19;;;;;;;15.95;12.25;;;26.20;99.90;;;;;;5045927;28;20053;-79
2023/08/19 11:35:46;;;;;;;17.45;12.20;;;26.50;99.90;;;;;;5028779;28;20041;-79
2023/08/19 11:38:15;;;;;;;21.02;12.63;;;26.90;99.90;;;;;;5018017;28;20045;-79
2023/08/19 11:40:42;;;;;;;14.48;11.73;;;27.40;99.90;;;;;;5023872;28;20087;-79
2023/08/19 11:43:10;;;;;;;17.52;15.13;;;27.80;99.90;;;;;;5019244;28;20425;-79
2023/08/19 11:45:37;;;;;;;20.80;15.48;;;28.10;99.90;;;;;;5002567;28;20160;-79
2023/08/19 11:48:11;;;;;;;22.13;17.45;;;28.40;99.90;;;;;;5010614;28;20102;-79
2023/08/19 11:50:49;;;;;;;22.50;19.48;;;28.40;99.90;;;;;;5017086;28;20034;-80
2023/08/19 11:53:26;;;;;;;24.75;18.67;;;28.30;99.90;;;;;;5012841;28;20045;-79
2023/08/19 11:55:57;;;;;;;19.27;16.55;;;28.40;99.90;;;;;;5018914;28;20037;-79
2023/08/19 11:58:25;;;;;;;26.30;21.60;;;28.40;99.90;;;;;;4998216;28;20132;-80
2023/08/19 12:00:54;;;;;;;31.23;23.40;;;28.50;99.90;;;;;;5037938;28;20036;-79
2023/08/19 12:03:20;;;;;;;32.63;26.63;;;28.30;99.90;;;;;;5020909;28;20156;-80
2023/08/19 12:05:46;;;;;;;32.25;27.67;;;28.10;99.90;;;;;;5030772;28;20033;-80
2023/08/19 12:08:29;;;;;;;33.70;28.42;;;27.80;99.90;;;;;;5020017;28;20030;-79
2023/08/19 12:10:55;;;;;;;32.92;28.08;;;27.60;99.90;;;;;;5030591;28;20069;-79
2023/08/19 12:13:21;;;;;;;30.73;26.60;;;27.30;99.90;;;;;;5004029;28;20042;-79
2023/08/19 12:15:47;;;;;;;31.75;25.45;;;27.10;99.90;;;;;;5038134;28;20041;-79
2023/08/19 12:18:16;;;;;;;29.10;24.67;;;26.90;99.90;;;;;;5021514;28;20052;-79
2023/08/19 12:20:43;;;;;;;28.63;23.38;;;26.80;99.90;;;;;;5022240;28;20061;-79
2023/08/19 12:23:13;;;;;;;29.58;23.63;;;26.70;99.90;;;;;;5031537;22;20050;-77
2023/08/19 12:29:36;;;;;;;32.95;26.13;;;26.50;99.90;;;;;;5030196;28;20040;-77
2023/08/19 12:32:29;;;;;;;35.60;24.60;;;26.50;99.90;;;;;;5030684;28;20109;-77
2023/08/19 12:35:00;;;;;;;27.30;20.52;;;26.40;99.90;;;;;;5008824;28;20049;-77
2023/08/19 12:37:50;;;;;;;21.48;16.25;;;26.20;99.90;;;;;;5007963;28;20045;-77
2023/08/19 12:40:40;;;;;;;20.00;16.05;;;26.00;99.90;;;;;;5008351;28;20072;-77
2023/08/19 12:43:16;;;;;;;22.33;16.20;;;25.80;99.90;;;;;;4975204;28;20508;-77
2023/08/19 12:45:47;;;;;;;20.60;14.02;;;25.60;99.90;;;;;;4998512;28;20477;-77
2023/08/19 12:48:46;;;;;;;18.30;13.55;;;25.50;99.90;;;;;;4963914;28;20051;-76
2023/08/19 12:52:03;;;;;;;16.85;12.02;;;25.40;99.90;;;;;;5015924;28;20500;-78
2023/08/19 12:54:38;;;;;;;15.70;11.00;;;25.50;99.90;;;;;;4997217;28;20073;-79
2023/08/19 12:57:24;;;;;;;14.18;9.82;;;25.70;99.90;;;;;;5008455;28;20069;-79
2023/08/19 13:03:36;;;;;;;13.63;9.05;;;26.00;99.90;;;;;;5058767;22;20044;-65
2023/08/19 13:06:03;;;;;;;13.55;8.35;;;26.00;99.90;;;;;;5064019;28;20036;-66
2023/08/19 13:08:28;;;;;;;11.43;7.97;;;26.00;99.90;;;;;;5032226;28;20072;-65
2023/08/19 13:10:54;;;;;;;10.88;7.72;;;26.00;99.90;;;;;;5031762;28;20073;-66
2023/08/19 13:13:19;;;;;;;13.02;8.27;;;26.00;99.90;;;;;;5043643;28;20580;-65
2023/08/19 13:15:45;;;;;;;11.43;7.75;;;26.00;99.90;;;;;;5031687;28;20045;-65
2023/08/19 13:18:11;;;;;;;10.85;7.80;;;25.90;99.90;;;;;;5038890;28;20076;-68
2023/08/19 13:20:36;;;;;;;11.40;7.97;;;25.90;99.90;;;;;;5021868;28;20033;-67
2023/08/19 13:23:02;;;;;;;10.95;7.10;;;25.90;99.90;;;;;;4997793;28;20045;-65
2023/08/19 13:25:28;;;;;;;9.27;6.68;;;25.70;99.90;;;;;;5014724;28;20446;-66
2023/08/19 13:27:53;;;;;;;9.32;5.80;;;25.70;99.90;;;;;;5027478;28;20033;-65
2023/08/19 13:30:19;;;;;;;10.27;5.57;;;25.60;99.90;;;;;;5035402;28;20115;-65
2023/08/19 13:32:45;;;;;;;7.32;5.00;;;25.60;99.90;;;;;;5023361;28;20514;-66
2023/08/19 13:35:11;;;;;;;9.57;4.80;;;25.50;99.90;;;;;;5004757;28;20562;-63
2023/08/19 13:37:36;;;;;;;7.55;4.45;;;25.50;99.90;;;;;;5040451;28;20832;-63
2023/08/19 13:40:05;;;;;;;8.27;4.57;;;25.40;99.90;;;;;;5014180;28;20038;-64
2023/08/19 13:42:32;;;;;;;9.05;4.97;;;25.40;99.90;;;;;;5019677;28;20033;-68
2023/08/19 13:44:57;;;;;;;9.05;5.68;;;25.40;99.90;;;;;;5009173;28;20069;-65
2023/08/19 13:47:23;;;;;;;8.68;5.47;;;25.30;99.90;;;;;;5045286;28;20076;-63
2023/08/19 13:49:49;;;;;;;14.93;6.32;;;25.20;99.90;;;;;;5023303;28;20258;-64
2023/08/19 13:52:38;;;;;;;9.27;5.85;;;25.10;99.90;;;;;;5025194;28;20033;-64
2023/08/19 13:55:08;;;;;;;11.00;6.05;;;25.00;99.90;;;;;;5029325;28;20037;-65
2023/08/19 13:57:34;;;;;;;9.63;6.32;;;25.00;99.90;;;;;;5031297;28;20083;-65
2023/08/19 14:00:00;;;;;;;8.68;5.40;;;24.90;99.90;;;;;;5030649;28;20033;-65
2023/08/19 14:02:26;;;;;;;11.70;6.60;;;24.90;99.90;;;;;;5006143;28;20076;-64
2023/08/19 14:04:52;;;;;;;9.05;6.03;;;24.80;99.90;;;;;;5025657;28;20029;-64
2023/08/19 14:07:18;;;;;;;11.60;7.45;;;24.80;99.90;;;;;;5008952;28;20102;-69
2023/08/19 14:09:43;;;;;;;12.32;6.82;;;24.70;99.90;;;;;;5013111;28;20045;-63
2023/08/19 14:12:09;;;;;;;11.85;6.53;;;24.70;99.90;;;;;;5026650;28;20068;-63
2023/08/19 14:14:37;;;;;;;9.77;6.70;;;24.60;99.90;;;;;;5008027;28;20048;-63
2023/08/19 14:17:03;;;;;;;9.77;6.20;;;24.60;99.90;;;;;;5024685;28;20088;-63
2023/08/19 14:19:29;;;;;;;10.48;6.07;;;24.60;99.90;;;;;;5004826;28;20434;-63
2023/08/19 14:21:55;;;;;;;8.75;5.55;;;24.60;99.90;;;;;;5024957;28;20060;-64
2023/08/19 14:24:20;;;;;;;9.63;6.10;;;24.50;99.90;;;;;;5022966;28;20045;-67
2023/08/19 14:26:46;;;;;;;12.35;6.85;;;24.50;99.90;;;;;;5024050;28;20052;-64
2023/08/19 14:29:12;;;;;;;9.50;6.55;;;24.50;99.90;;;;;;5026876;28;20026;-63
2023/08/19 14:31:37;;;;;;;11.15;6.63;;;24.40;99.90;;;;;;5030599;28;20044;-66
2023/08/19 14:34:03;;;;;;;10.35;6.38;;;24.40;99.90;;;;;;5017297;28;20040;-66
2023/08/19 14:36:28;;;;;;;11.05;6.57;;;24.40;99.90;;;;;;5030277;28;20033;-68
2023/08/19 14:38:54;;;;;;;13.75;7.93;;;24.40;99.90;;;;;;5011984;28;20041;-63
2023/08/19 14:41:20;;;;;;;10.77;6.75;;;24.40;99.90;;;;;;5012239;28;20116;-63
2023/08/19 14:43:46;;;;;;;13.75;7.22;;;24.30;99.90;;;;;;5011469;28;20446;-63